createdAt,value
2023-09-09T00:02:51.614Z,14.53
2023-09-09T00:07:55.762Z,14.33
2023-09-09T00:12:58.833Z,15.03
2023-09-09T00:18:02.272Z,13.33
2023-09-09T00:23:09.084Z,16.60
2023-09-09T00:28:13.261Z,17.70
2023-09-09T00:33:15.967Z,14.43
2023-09-09T00:38:20.153Z,14.47
2023-09-09T00:43:22.858Z,14.23
2023-09-09T00:48:25.714Z,13.57
2023-09-09T00:53:29.941Z,11.97
2023-09-09T00:58:32.957Z,13.03
2023-09-09T01:03:35.834Z,17.90
2023-09-09T01:08:40.107Z,14.10
2023-09-09T01:13:43.273Z,13.30
2023-09-09T01:18:46.289Z,14.40
2023-09-09T01:23:50.704Z,16.77
2023-09-09T01:28:53.477Z,14.27
2023-09-09T01:33:58.479Z,15.10
2023-09-09T01:39:02.572Z,15.70
2023-09-09T01:44:05.544Z,16.77
2023-09-09T01:49:09.636Z,14.53
2023-09-09T01:54:13.709Z,14.30
2023-09-09T01:59:16.488Z,13.77
2023-09-09T02:04:19.284Z,14.73
2023-09-09T02:09:23.405Z,12.70
2023-09-09T02:14:26.077Z,12.93
2023-09-09T02:19:28.806Z,12.70
2023-09-09T02:24:32.854Z,14.23
2023-09-09T02:29:35.568Z,13.47
2023-09-09T02:34:38.296Z,13.00
2023-09-09T02:39:42.978Z,14.80
2023-09-09T02:44:46.121Z,12.70
2023-09-09T02:49:51.281Z,14.80
2023-09-09T02:54:56.579Z,12.83
2023-09-09T02:59:59.362Z,13.80
2023-09-09T03:05:02.170Z,17.07
2023-09-09T03:10:07.013Z,18.07
2023-09-09T03:15:10.634Z,15.93
2023-09-09T03:20:14.494Z,16.73
2023-09-09T03:25:19.076Z,17.30
2023-09-09T03:30:22.361Z,16.93
2023-09-09T03:35:25.219Z,16.07
2023-09-09T03:40:29.380Z,19.20
2023-09-09T03:45:32.248Z,17.77
2023-09-09T03:50:35.531Z,20.80
2023-09-09T03:55:40.127Z,17.60
2023-09-09T04:00:43.077Z,15.13
2023-09-09T04:05:48.281Z,16.97
2023-09-09T04:10:52.446Z,14.70
2023-09-09T04:15:55.637Z,14.30
2023-09-09T04:20:58.424Z,13.27
2023-09-09T04:26:02.698Z,13.43
2023-09-09T04:31:05.785Z,13.77
2023-09-09T04:36:11.176Z,12.53
2023-09-09T04:41:15.424Z,14.07
2023-09-09T04:46:18.507Z,13.43
2023-09-09T04:51:21.312Z,14.17
2023-09-09T04:56:25.596Z,12.37
2023-09-09T05:01:28.690Z,11.13
2023-09-09T05:06:31.509Z,13.40
2023-09-09T05:11:35.886Z,13.00
2023-09-09T05:16:39.175Z,13.00
2023-09-09T05:21:43.776Z,11.70
2023-09-09T05:26:47.945Z,11.70
2023-09-09T05:31:50.749Z,12.43
2023-09-09T05:36:53.523Z,14.27
2023-09-09T05:41:57.667Z,13.27
2023-09-09T05:47:00.556Z,14.63
2023-09-09T05:52:03.873Z,14.73
2023-09-09T05:57:08.951Z,13.40
2023-09-09T06:02:12.181Z,19.93
2023-09-09T06:07:15.012Z,13.90
2023-09-09T06:12:19.518Z,10.67
2023-09-09T06:17:22.261Z,12.03
2023-09-09T06:22:25.001Z,16.77
2023-09-09T06:27:29.159Z,18.17
2023-09-09T06:32:32.112Z,11.30
2023-09-09T06:37:35.957Z,9.80
2023-09-09T06:42:40.066Z,16.33
2023-09-09T06:47:42.867Z,14.20
2023-09-09T06:52:45.740Z,8.77
2023-09-09T06:57:49.966Z,14.13
2023-09-09T07:02:53.268Z,10.07
2023-09-09T07:07:55.986Z,10.17
2023-09-09T07:13:00.043Z,8.80
2023-09-09T07:18:02.763Z,11.63
2023-09-09T07:23:05.509Z,12.00
2023-09-09T07:28:09.578Z,11.20
2023-09-09T07:33:12.374Z,10.13
2023-09-09T07:38:15.135Z,10.73
2023-09-09T07:43:20.198Z,11.40
2023-09-09T07:48:23.223Z,8.50
2023-09-09T07:53:26.013Z,10.83
2023-09-09T07:58:30.255Z,11.70
2023-09-09T08:03:33.132Z,8.13
2023-09-09T08:08:37.184Z,9.30
2023-09-09T08:13:41.257Z,8.73
2023-09-09T08:18:43.967Z,10.50
2023-09-09T08:23:46.689Z,7.60
2023-09-09T08:28:50.778Z,10.23
2023-09-09T08:33:53.518Z,7.35
2023-09-09T08:38:58.438Z,9.48
2023-09-09T08:44:07.184Z,7.30
2023-09-09T08:49:13.836Z,7.10
2023-09-09T08:54:17.064Z,7.45
2023-09-09T08:59:21.216Z,8.00
2023-09-09T09:04:24.088Z,7.63
2023-09-09T09:09:26.947Z,10.65
2023-09-09T09:14:31.295Z,7.95
2023-09-09T09:19:34.060Z,9.20
2023-09-09T09:24:42.260Z,7.00
2023-09-09T09:29:46.877Z,7.57
2023-09-09T09:34:51.398Z,10.05
2023-09-09T09:39:54.121Z,6.78
2023-09-09T09:45:09.147Z,10.52
2023-09-09T09:50:18.412Z,9.77
2023-09-09T09:55:21.079Z,6.30
2023-09-09T10:00:25.343Z,6.55
2023-09-09T10:05:29.322Z,9.68
2023-09-09T10:10:33.444Z,6.28
2023-09-09T10:15:37.595Z,7.78
2023-09-09T10:20:41.937Z,6.40
2023-09-09T10:25:45.133Z,7.88
2023-09-09T10:30:49.967Z,8.98
2023-09-09T10:35:53.213Z,6.97
2023-09-09T10:40:56.232Z,10.77
2023-09-09T10:46:00.481Z,6.80
2023-09-09T10:51:06.671Z,7.82
2023-09-09T10:56:24.065Z,8.63
2023-09-09T11:01:29.501Z,6.57
2023-09-09T11:06:33.245Z,6.78
2023-09-09T11:11:38.473Z,7.13
2023-09-09T11:16:43.061Z,6.38
2023-09-09T11:21:46.831Z,6.40
2023-09-09T11:26:50.588Z,6.65
2023-09-09T11:31:54.759Z,7.65
2023-09-09T11:36:57.509Z,5.97
2023-09-09T11:42:03.870Z,6.70
2023-09-09T11:47:08.043Z,6.78
2023-09-09T11:52:11.080Z,12.80
2023-09-09T11:57:13.809Z,7.68
2023-09-09T12:02:21.145Z,6.40
2023-09-09T12:07:24.777Z,6.25
2023-09-09T12:12:27.961Z,7.20
2023-09-09T12:17:32.362Z,6.40
2023-09-09T12:22:37.760Z,6.18
2023-09-09T12:27:41.536Z,5.93
2023-09-09T12:32:45.701Z,6.25
2023-09-09T12:37:48.404Z,6.95
2023-09-09T12:42:51.098Z,6.55
2023-09-09T12:47:55.222Z,7.53
2023-09-09T12:53:00.404Z,6.57
2023-09-09T12:58:03.523Z,6.30
2023-09-09T13:03:07.836Z,7.35
2023-09-09T13:08:10.690Z,7.18
2023-09-09T13:13:13.450Z,8.43
2023-09-09T13:18:17.627Z,6.97
2023-09-09T13:23:20.419Z,6.93
2023-09-09T13:28:23.178Z,7.97
2023-09-09T13:33:27.372Z,9.13
2023-09-09T13:38:30.390Z,7.63
2023-09-09T13:43:33.208Z,7.85
2023-09-09T13:48:37.482Z,7.50
2023-09-09T13:53:40.454Z,7.57
2023-09-09T13:58:43.375Z,7.32
2023-09-09T14:03:47.616Z,7.60
2023-09-09T14:08:50.431Z,8.00
2023-09-09T14:13:53.147Z,10.70
2023-09-09T14:18:57.304Z,7.72
2023-09-09T14:24:00.243Z,7.20
2023-09-09T14:29:03.827Z,8.18
2023-09-09T14:34:07.894Z,7.60
2023-09-09T14:39:10.636Z,7.45
2023-09-09T14:44:13.432Z,11.48
2023-09-09T14:49:17.613Z,7.55
2023-09-09T14:54:20.323Z,7.43
2023-09-09T14:59:23.042Z,7.90
2023-09-09T15:04:27.207Z,7.07
2023-09-09T15:09:29.962Z,9.52
2023-09-09T15:14:32.746Z,8.80
2023-09-09T15:19:36.875Z,8.15
2023-09-09T15:24:39.558Z,9.45
2023-09-09T15:29:42.306Z,8.35
2023-09-09T15:34:46.676Z,9.80
2023-09-09T15:39:49.506Z,9.10
2023-09-09T15:44:52.200Z,8.10
2023-09-09T15:49:56.319Z,10.82
2023-09-09T15:54:59.213Z,10.43
2023-09-09T16:00:01.886Z,9.85
2023-09-09T16:05:25.878Z,8.45
2023-09-09T16:10:28.592Z,9.20
2023-09-09T16:15:31.472Z,10.50
2023-09-09T16:20:35.903Z,8.82
2023-09-09T16:25:38.651Z,9.95
2023-09-09T16:30:41.933Z,8.07
2023-09-09T16:35:46.972Z,10.27
2023-09-09T16:40:53.588Z,8.80
2023-09-09T16:45:56.602Z,8.70
2023-09-09T16:51:00.714Z,9.45
2023-09-09T16:56:03.646Z,8.55
2023-09-09T17:01:06.449Z,10.10
2023-09-09T17:06:10.844Z,10.93
2023-09-09T17:11:13.534Z,9.25
2023-09-09T17:16:16.301Z,8.80
2023-09-09T17:21:20.546Z,11.63
2023-09-09T17:26:24.064Z,8.32
2023-09-09T17:31:26.867Z,8.45
2023-09-09T17:36:31.232Z,9.15
2023-09-09T17:41:34.325Z,11.43
2023-09-09T17:46:37.784Z,11.07
2023-09-09T17:51:42.094Z,13.23
2023-09-09T17:56:44.801Z,11.50
2023-09-09T18:01:49.252Z,14.35
2023-09-09T18:06:53.382Z,10.25
2023-09-09T18:11:56.049Z,8.05
2023-09-09T18:16:58.798Z,8.27
2023-09-09T18:22:02.902Z,8.30
2023-09-09T18:27:05.964Z,7.72
2023-09-09T18:32:08.729Z,8.73
2023-09-09T18:37:12.874Z,8.30
2023-09-09T18:42:15.572Z,9.68
2023-09-09T18:47:18.380Z,8.45
2023-09-09T18:52:22.531Z,8.57
2023-09-09T18:57:25.356Z,8.18
2023-09-09T19:02:28.320Z,10.68
2023-09-09T19:07:33.626Z,10.70
2023-09-09T19:12:36.363Z,9.27
2023-09-09T19:17:39.096Z,8.80
2023-09-09T19:22:43.309Z,8.45
2023-09-09T19:27:46.944Z,12.57
2023-09-09T19:32:50.146Z,9.70
2023-09-09T19:37:55.586Z,16.13
2023-09-09T19:42:58.588Z,11.17
2023-09-09T19:48:01.302Z,14.97
2023-09-09T19:53:05.588Z,10.68
2023-09-09T19:58:08.323Z,13.10
2023-09-09T20:03:11.099Z,18.13
2023-09-09T20:08:15.279Z,15.23
2023-09-09T20:13:22.930Z,20.83
2023-09-09T20:18:25.982Z,16.90
2023-09-09T20:23:30.135Z,21.67
2023-09-09T20:28:32.843Z,13.97
2023-09-09T20:33:35.599Z,15.63
2023-09-09T20:38:40.540Z,19.60
2023-09-09T20:43:44.534Z,21.43
2023-09-09T20:48:47.372Z,18.27
2023-09-09T20:53:51.579Z,16.20
2023-09-09T20:58:54.443Z,19.00
2023-09-09T21:03:57.412Z,19.17
2023-09-09T21:09:01.592Z,17.07
2023-09-09T21:14:04.372Z,21.90
2023-09-09T21:19:07.078Z,16.47
2023-09-09T21:24:11.271Z,15.70
2023-09-09T21:29:14.204Z,14.17
2023-09-09T21:34:16.951Z,14.90
2023-09-09T21:39:20.973Z,17.23
2023-09-09T21:44:23.643Z,13.30
2023-09-09T21:49:26.378Z,16.40
2023-09-09T21:54:30.498Z,15.50
2023-09-09T21:59:33.177Z,14.53
2023-09-09T22:04:35.901Z,13.50
2023-09-09T22:09:40.034Z,14.93
2023-09-09T22:14:42.735Z,16.93
2023-09-09T22:19:46.448Z,14.73
2023-09-09T22:24:50.521Z,15.70
2023-09-09T22:29:56.676Z,18.67
2023-09-09T22:34:59.620Z,16.10
2023-09-09T22:40:05.253Z,15.80
2023-09-09T22:45:08.440Z,16.10
2023-09-09T22:50:11.668Z,16.70
2023-09-09T22:55:15.783Z,18.43
2023-09-09T23:00:19.284Z,18.90
2023-09-09T23:05:22.015Z,18.90
2023-09-09T23:10:26.510Z,18.57
2023-09-09T23:15:29.193Z,21.13
2023-09-09T23:20:32.577Z,19.80
2023-09-09T23:25:36.715Z,21.80
2023-09-09T23:30:39.434Z,22.60
2023-09-09T23:35:42.838Z,18.50
2023-09-09T23:40:47.028Z,16.53
2023-09-09T23:45:49.768Z,17.97
2023-09-09T23:50:52.512Z,17.47
2023-09-09T23:55:57.180Z,16.20
